Terminal Aerodrome Forecast
Issued by NWS Shreveport, LA

Home | Current Version | Previous Version | Text Only | Print | Product List | Glossary On
Versions: 1 2 3 4 5 6 7 8 9 10 11 12 13 14
927
FTUS44 KSHV 102340
TAFSHV
TAF
KSHV 102340Z 1100/1124 22008KT P6SM SKC
     FM111800 27009KT P6SM FEW300
     FM112300 34007KT P6SM SCT250=

USA.gov is the U.S. government's official web portal to all federal, state and local government web resources and services.